Time;durP1;ratioP1;P1;durP2;ratioP2;P2;SDS_P1;SDS_P2;PMS_P1;PMS_P2;Temp;Humidity;BMP_temperature;BMP_pressure;BME280_temperature;BME280_humidity;BME280_pressure;Samples;Min_cycle;Max_cycle;Signal;HPM_P1;HPM_P2
2024/01/31 00:00:06;;;;;;;23.30;8.80;;;;;;;6.39;100.00;103225.41;4964216;28;20086;-76
2024/01/31 00:02:31;;;;;;;;;;;;;;;6.43;100.00;103226.25;4972761;28;20034;-76
2024/01/31 00:04:57;;;;;;;22.52;8.18;;;;;;;6.37;100.00;103215.66;4957566;29;19977;-76
2024/01/31 00:07:22;;;;;;;24.65;7.80;;;;;;;6.36;100.00;103233.47;4962986;29;20211;-76
2024/01/31 00:09:47;;;;;;;25.33;8.13;;;;;;;6.36;100.00;103228.13;4961794;29;20027;-76
2024/01/31 00:12:13;;;;;;;23.40;7.07;;;;;;;6.35;100.00;103222.81;4963383;28;20038;-76
2024/01/31 00:14:38;;;;;;;22.58;7.20;;;;;;;6.33;100.00;103224.66;4961453;29;20023;-76
2024/01/31 00:17:03;;;;;;;22.42;6.72;;;;;;;6.30;100.00;103228.25;4963753;28;20023;-76
2024/01/31 00:19:28;;;;;;;27.55;7.50;;;;;;;6.29;100.00;103232.69;4975645;28;20027;-76
2024/01/31 00:21:54;;;;;;;21.67;6.60;;;;;;;6.32;100.00;103238.91;4950734;29;20038;-76
2024/01/31 00:24:19;;;;;;;23.20;6.95;;;;;;;6.30;100.00;103250.47;4964048;28;20042;-76
2024/01/31 00:26:45;;;;;;;22.67;6.53;;;;;;;6.29;100.00;103251.38;4950166;29;20324;-76
2024/01/31 00:29:10;;;;;;;27.65;6.93;;;;;;;6.27;100.00;103250.53;4947090;29;20362;-76
2024/01/31 00:31:35;;;;;;;19.67;6.30;;;;;;;6.24;100.00;103250.59;4960201;28;20028;-76
2024/01/31 00:34:01;;;;;;;20.48;6.72;;;;;;;6.23;100.00;103256.81;4950247;29;20042;-76
2024/01/31 00:36:26;;;;;;;21.88;6.07;;;;;;;6.19;100.00;103259.56;4953156;28;20533;-76
2024/01/31 00:38:52;;;;;;;20.13;5.82;;;;;;;6.21;100.00;103261.31;4947695;29;20264;-76
2024/01/31 00:41:17;;;;;;;17.60;6.35;;;;;;;6.21;100.00;103260.41;4947862;29;20283;-76
2024/01/31 00:43:42;;;;;;;20.55;5.72;;;;;;;6.17;100.00;103270.28;4959930;28;20019;-76
2024/01/31 00:46:08;;;;;;;22.90;6.20;;;;;;;6.17;100.00;103267.63;4950391;29;20122;-76
2024/01/31 00:48:33;;;;;;;24.13;6.40;;;;;;;6.15;100.00;103266.78;4946598;28;20031;-76
2024/01/31 00:50:59;;;;;;;22.58;5.78;;;;;;;6.16;100.00;103270.31;4946391;29;20027;-76
2024/01/31 00:53:24;;;;;;;18.00;5.00;;;;;;;6.14;100.00;103274.81;4942068;29;20074;-76
2024/01/31 00:55:49;;;;;;;22.30;5.60;;;;;;;6.11;100.00;103267.72;4962502;28;20070;-76
2024/01/31 00:58:15;;;;;;;17.08;4.82;;;;;;;6.11;100.00;103265.03;4944244;29;20055;-76
2024/01/31 01:00:40;;;;;;;15.73;4.53;;;;;;;6.09;100.00;103266.84;4956327;28;20043;-76
2024/01/31 01:03:05;;;;;;;19.10;4.88;;;;;;;6.12;100.00;103280.16;4960480;28;20038;-76
2024/01/31 01:05:31;;;;;;;13.57;3.75;;;;;;;6.11;100.00;103271.25;4959855;28;20031;-76
2024/01/31 01:07:56;;;;;;;14.25;4.63;;;;;;;6.11;100.00;103281.94;4944071;29;20125;-76
2024/01/31 01:10:21;;;;;;;18.05;5.55;;;;;;;6.08;100.00;103290.00;4941712;29;20062;-76
2024/01/31 01:12:46;;;;;;;20.58;5.40;;;;;;;6.09;100.00;103289.09;4960861;28;20023;-76
2024/01/31 01:15:12;;;;;;;20.38;4.68;;;;;;;6.11;100.00;103283.75;4958290;28;20027;-76
2024/01/31 01:17:40;;;;;;;19.27;4.40;;;;;;;6.06;100.00;103286.47;4947484;28;20133;-76
2024/01/31 01:20:08;;;;;;;15.70;4.47;;;;;;;6.07;100.00;103284.69;4962032;28;20051;-76
2024/01/31 01:22:34;;;;;;;15.65;4.05;;;;;;;6.11;100.00;103289.06;4957723;28;20321;-76
2024/01/31 01:24:59;;;;;;;18.15;4.82;;;;;;;6.09;100.00;103281.09;4957498;28;20030;-76
2024/01/31 01:27:24;;;;;;;19.80;4.63;;;;;;;6.11;100.00;103283.75;4955935;28;20054;-77
2024/01/31 01:29:50;;;;;;;14.88;4.53;;;;;;;6.08;100.00;103287.31;4958313;28;20423;-76
2024/01/31 01:32:15;;;;;;;12.48;3.63;;;;;;;6.08;100.00;103283.78;4959903;29;20035;-76
2024/01/31 01:34:41;;;;;;;12.70;3.63;;;;;;;6.10;100.00;103284.63;4966512;29;20038;-76
2024/01/31 01:37:06;;;;;;;21.10;4.97;;;;;;;6.10;100.00;103287.31;4963862;28;20019;-76
2024/01/31 01:39:31;;;;;;;19.25;4.90;;;;;;;6.10;100.00;103287.31;4960230;28;20027;-76
2024/01/31 01:41:57;;;;;;;19.27;4.47;;;;;;;6.10;100.00;103288.16;4963313;29;20055;-76
2024/01/31 01:44:22;;;;;;;16.25;4.25;;;;;;;6.07;100.00;103290.03;4972675;28;20019;-76
2024/01/31 01:46:47;;;;;;;16.05;4.07;;;;;;;6.09;100.00;103293.53;4965273;29;20098;-76
2024/01/31 01:49:14;;;;;;;17.35;4.28;;;;;;;6.05;100.00;103291.84;4963291;28;20570;-76
2024/01/31 01:51:41;;;;;;;14.18;4.00;;;;;;;6.03;100.00;103285.63;4961956;29;20039;-76
2024/01/31 01:54:12;;;;;;;15.27;3.83;;;;;;;6.05;100.00;103283.84;4960362;28;20087;-76
2024/01/31 01:56:41;;;;;;;16.55;4.10;;;;;;;6.01;100.00;103288.31;4961284;28;20035;-76
2024/01/31 01:59:07;;;;;;;18.65;4.07;;;;;;;5.98;100.00;103282.16;4965497;29;20157;-76
2024/01/31 02:01:32;;;;;;;15.20;3.80;;;;;;;5.97;100.00;103278.59;4960582;29;20035;-76
2024/01/31 02:03:58;;;;;;;21.92;5.28;;;;;;;5.93;100.00;103280.41;4963051;29;20054;-76
2024/01/31 02:06:25;;;;;;;15.45;3.80;;;;;;;5.91;100.00;103284.88;4967204;28;20050;-76
2024/01/31 02:08:51;;;;;;;17.40;4.20;;;;;;;5.94;100.00;103287.50;4958909;29;20027;-76
2024/01/31 02:11:16;;;;;;;17.55;4.95;;;;;;;5.92;100.00;103275.97;4964431;28;20027;-76
2024/01/31 02:13:41;;;;;;;16.55;4.28;;;;;;;5.91;100.00;103279.53;4978828;28;20034;-76
2024/01/31 02:16:07;;;;;;;19.65;4.78;;;;;;;5.93;100.00;103276.88;4970924;28;20094;-76
2024/01/31 02:18:32;;;;;;;18.52;5.10;;;;;;;5.91;100.00;103284.88;4961558;29;20091;-76
2024/01/31 02:20:57;;;;;;;14.73;4.20;;;;;;;5.91;100.00;103276.84;4960985;29;20031;-76
2024/01/31 02:23:23;;;;;;;15.15;4.18;;;;;;;5.91;100.00;103279.53;4954501;29;20038;-76
2024/01/31 02:25:49;;;;;;;14.13;3.53;;;;;;;5.92;100.00;103275.97;4973470;28;20031;-76
2024/01/31 02:28:14;;;;;;;17.67;4.68;;;;;;;5.93;100.00;103266.19;4958358;29;20066;-76
2024/01/31 02:30:40;;;;;;;17.30;5.40;;;;;;;5.95;100.00;103273.25;4958799;28;20047;-76
2024/01/31 02:33:05;;;;;;;17.95;4.82;;;;;;;5.95;100.00;103273.25;4959183;28;20042;-76
2024/01/31 02:35:32;;;;;;;17.58;5.15;;;;;;;5.92;100.00;103275.97;4957559;28;20127;-76
2024/01/31 02:37:57;;;;;;;16.90;4.20;;;;;;;5.92;100.00;103275.09;4960787;28;20042;-76
2024/01/31 02:40:23;;;;;;;20.33;5.47;;;;;;;5.91;100.00;103278.66;4962091;29;20101;-76
2024/01/31 02:42:48;;;;;;;22.35;5.18;;;;;;;5.93;100.00;103277.72;4959459;28;20529;-76
2024/01/31 02:45:14;;;;;;;21.23;5.95;;;;;;;5.94;100.00;103284.84;4948078;29;20042;-76
2024/01/31 02:47:39;;;;;;;17.67;5.28;;;;;;;5.97;100.00;103278.59;4947714;29;20027;-76
2024/01/31 02:50:05;;;;;;;19.75;5.82;;;;;;;5.98;100.00;103280.38;4948227;28;20110;-76
2024/01/31 02:52:30;;;;;;;18.77;5.30;;;;;;;5.99;100.00;103275.91;4944270;28;20134;-76
2024/01/31 02:54:56;;;;;;;14.82;4.30;;;;;;;5.94;100.00;103278.59;4943652;28;20623;-76
2024/01/31 02:57:22;;;;;;;14.65;4.43;;;;;;;5.91;100.00;103273.31;4960863;28;20109;-76
2024/01/31 02:59:47;;;;;;;19.20;5.75;;;;;;;5.91;100.00;103263.50;4944379;28;20062;-76
2024/01/31 03:02:17;;;;;;;18.90;4.93;;;;;;;5.92;100.00;103259.94;4945125;28;20035;-76
2024/01/31 03:04:42;;;;;;;19.90;5.15;;;;;;;5.91;100.00;103257.31;4940638;29;20448;-76
2024/01/31 03:07:08;;;;;;;21.60;5.93;;;;;;;5.95;100.00;103259.03;4936656;28;20050;-76
2024/01/31 03:09:33;;;;;;;22.92;5.85;;;;;;;5.93;100.00;103251.03;4942116;29;20023;-76
2024/01/31 03:11:59;;;;;;;21.90;6.00;;;;;;;5.92;100.00;103248.41;4943253;29;20519;-76
2024/01/31 03:14:24;;;;;;;18.92;4.97;;;;;;;5.93;100.00;103248.38;4943136;28;20129;-76
2024/01/31 03:16:49;;;;;;;19.70;5.35;;;;;;;5.96;100.00;103242.13;4943595;28;20191;-76
2024/01/31 03:19:15;;;;;;;20.50;6.63;;;;;;;5.95;100.00;103243.88;4958960;28;20034;-76
2024/01/31 03:21:41;;;;;;;19.40;6.68;;;;;;;5.93;100.00;103239.50;4959424;28;20030;-76
2024/01/31 03:24:06;;;;;;;21.00;6.13;;;;;;;5.92;100.00;103233.25;4947921;28;20086;-76
2024/01/31 03:26:31;;;;;;;21.02;6.65;;;;;;;5.92;100.00;103227.03;4943855;29;20046;-76
2024/01/31 03:28:58;;;;;;;21.92;6.57;;;;;;;5.93;100.00;103229.69;4934756;28;20160;-76
2024/01/31 03:31:23;;;;;;;22.88;6.68;;;;;;;5.95;100.00;103235.88;4940874;28;20038;-76
2024/01/31 03:33:49;;;;;;;21.65;7.03;;;;;;;5.97;100.00;103232.31;4945590;29;20035;-76
2024/01/31 03:36:14;;;;;;;25.25;9.82;;;;;;;5.94;100.00;103227.88;4944516;29;20027;-76
2024/01/31 03:38:39;;;;;;;21.75;8.40;;;;;;;5.92;100.00;103227.03;4955628;28;20035;-76
2024/01/31 03:41:08;;;;;;;23.48;7.45;;;;;;;5.91;100.00;103228.81;4944206;29;20023;-76
2024/01/31 03:43:33;;;;;;;25.98;7.60;;;;;;;5.88;100.00;103220.84;4939215;28;20028;-76
2024/01/31 03:46:00;;;;;;;25.58;9.80;;;;;;;5.86;100.00;103230.69;4938265;29;20058;-76
2024/01/31 03:48:27;;;;;;;24.35;9.27;;;;;;;5.85;100.00;103220.91;4941108;29;20109;-76
2024/01/31 03:50:52;;;;;;;25.23;8.15;;;;;;;5.87;100.00;103219.13;4940801;28;20039;-75
2024/01/31 03:53:18;;;;;;;26.15;8.38;;;;;;;5.86;100.00;103228.00;4956734;28;20451;-75
2024/01/31 03:55:44;;;;;;;28.27;8.32;;;;;;;5.90;100.00;103228.84;4956235;28;20062;-75
2024/01/31 03:58:09;;;;;;;20.27;8.18;;;;;;;5.90;100.00;103226.16;4957250;29;20079;-76
2024/01/31 04:00:34;;;;;;;27.00;9.23;;;;;;;5.87;100.00;103216.44;4957263;28;20027;-76
2024/01/31 04:03:00;;;;;;;23.45;8.98;;;;;;;5.88;100.00;103222.66;4956254;29;20038;-76
2024/01/31 04:05:25;;;;;;;22.73;8.73;;;;;;;5.87;100.00;103228.88;4954663;28;20090;-76
2024/01/31 04:07:50;;;;;;;28.38;9.43;;;;;;;5.87;100.00;103229.78;4952944;29;20268;-76
2024/01/31 04:10:16;;;;;;;26.58;9.55;;;;;;;5.90;100.00;103223.50;4949887;29;20031;-76
2024/01/31 04:12:41;;;;;;;24.65;9.00;;;;;;;5.90;100.00;103219.06;4953196;29;20320;-76
2024/01/31 04:15:07;;;;;;;22.30;9.07;;;;;;;5.90;100.00;103219.06;4954130;29;20046;-76
2024/01/31 04:17:32;;;;;;;26.02;9.90;;;;;;;5.88;100.00;103219.97;4954530;29;20051;-76
2024/01/31 04:19:58;;;;;;;27.30;8.80;;;;;;;5.85;100.00;103212.91;4955511;28;20035;-76
2024/01/31 04:22:23;;;;;;;22.75;9.32;;;;;;;5.87;100.00;103213.78;4956318;28;20031;-76
2024/01/31 04:24:48;;;;;;;26.65;10.30;;;;;;;5.86;100.00;103222.69;4952868;29;20040;-76
2024/01/31 04:27:13;;;;;;;25.00;8.95;;;;;;;5.84;100.00;103218.25;4955020;29;20035;-76
2024/01/31 04:29:41;;;;;;;26.40;9.85;;;;;;;5.85;100.00;103220.03;4959850;28;20023;-76
2024/01/31 04:32:07;;;;;;;25.25;9.45;;;;;;;5.84;100.00;103215.59;4960821;28;20034;-76
2024/01/31 04:34:34;;;;;;;23.80;10.85;;;;;;;5.85;100.00;103228.91;4960938;29;20050;-76
2024/01/31 04:36:59;;;;;;;24.90;9.65;;;;;;;5.85;100.00;103223.56;4960142;29;20051;-76
2024/01/31 04:39:25;;;;;;;25.77;10.00;;;;;;;5.85;100.00;103220.91;4977591;28;20039;-76
2024/01/31 04:41:50;;;;;;;25.83;8.63;;;;;;;5.84;100.00;103224.50;4961012;28;20031;-76
2024/01/31 04:44:16;;;;;;;23.90;9.15;;;;;;;5.81;100.00;103227.19;4978876;28;20083;-76
2024/01/31 04:46:41;;;;;;;23.83;10.27;;;;;;;5.81;100.00;103216.50;4961282;29;20422;-76
2024/01/31 04:49:06;;;;;;;23.15;9.82;;;;;;;5.82;100.00;103212.06;4957127;29;20363;-76
2024/01/31 04:51:32;;;;;;;32.60;10.65;;;;;;;5.79;100.00;103215.66;4959104;29;20063;-76
2024/01/31 04:53:57;;;;;;;26.17;10.63;;;;;;;5.78;100.00;103221.91;4952999;28;20035;-76
2024/01/31 04:56:22;;;;;;;25.88;10.50;;;;;;;5.77;100.00;103214.81;4954611;29;20035;-76
2024/01/31 04:58:47;;;;;;;26.88;10.38;;;;;;;5.77;100.00;103213.03;4971866;28;20027;-76
2024/01/31 05:01:13;;;;;;;23.85;9.80;;;;;;;5.74;100.00;103207.75;4957000;28;20031;-75
2024/01/31 05:03:38;;;;;;;27.98;11.32;;;;;;;5.75;100.00;103219.28;4953827;29;20020;-76
2024/01/31 05:06:04;;;;;;;27.92;11.50;;;;;;;5.72;100.00;103214.88;4970328;28;20047;-76
2024/01/31 05:08:29;;;;;;;27.08;10.65;;;;;;;5.74;100.00;103215.75;4952826;29;20046;-76
2024/01/31 05:10:55;;;;;;;25.85;10.45;;;;;;;5.76;100.00;103210.38;4957503;29;20087;-76
2024/01/31 05:13:20;;;;;;;25.02;10.98;;;;;;;5.74;100.00;103204.16;4956142;29;20047;-76
2024/01/31 05:15:46;;;;;;;26.48;11.32;;;;;;;5.76;100.00;103213.06;4971189;28;20036;-76
2024/01/31 05:18:11;;;;;;;25.52;11.73;;;;;;;5.77;100.00;103204.16;4960880;28;20023;-76
2024/01/31 05:20:37;;;;;;;28.10;11.38;;;;;;;5.75;100.00;103204.19;4972866;28;20596;-76
2024/01/31 05:23:03;;;;;;;27.95;12.65;;;;;;;5.70;100.00;103203.34;4957046;28;20038;-76
2024/01/31 05:25:28;;;;;;;24.23;10.20;;;;;;;5.69;100.00;103190.91;4954406;28;20024;-76
2024/01/31 05:27:54;;;;;;;26.15;10.73;;;;;;;5.71;100.00;103201.53;4956338;29;20035;-76
2024/01/31 05:30:20;;;;;;;25.80;10.70;;;;;;;5.71;100.00;103205.13;4955128;29;20038;-76
2024/01/31 05:32:46;;;;;;;27.60;11.20;;;;;;;5.71;100.00;103212.22;4953801;29;20027;-76
2024/01/31 05:35:11;;;;;;;27.05;10.80;;;;;;;5.72;100.00;103206.00;4954371;29;20038;-76
2024/01/31 05:37:37;;;;;;;30.63;11.95;;;;;;;5.73;100.00;103203.28;4955946;29;20148;-76
2024/01/31 05:40:04;;;;;;;26.52;11.55;;;;;;;5.74;100.00;103204.16;4955866;29;20581;-76
2024/01/31 05:42:29;;;;;;;27.15;11.43;;;;;;;5.75;100.00;103217.50;4953125;29;20027;-76
2024/01/31 05:44:56;;;;;;;26.60;11.82;;;;;;;5.75;100.00;103209.50;4955611;29;20029;-76
2024/01/31 05:47:21;;;;;;;33.00;12.02;;;;;;;5.76;100.00;103211.25;4970654;28;20034;-76
2024/01/31 05:49:47;;;;;;;26.48;11.82;;;;;;;5.76;100.00;103207.72;4956553;28;20024;-76
2024/01/31 05:52:12;;;;;;;28.50;12.82;;;;;;;5.74;100.00;103207.75;4954772;29;20050;-76
2024/01/31 05:54:38;;;;;;;26.45;12.57;;;;;;;5.75;100.00;103208.59;4968912;28;20099;-76
2024/01/31 05:57:04;;;;;;;27.05;12.60;;;;;;;5.72;100.00;103216.66;4959098;28;20046;-76
2024/01/31 05:59:29;;;;;;;26.50;11.48;;;;;;;5.75;100.00;103216.63;4955349;29;20027;-76
2024/01/31 06:01:55;;;;;;;28.42;12.63;;;;;;;5.75;100.00;103209.50;4956251;28;20059;-76
2024/01/31 06:04:20;;;;;;;28.30;12.23;;;;;;;5.74;100.00;103207.75;4956288;29;20019;-76
2024/01/31 06:06:45;;;;;;;26.80;13.38;;;;;;;5.75;100.00;103211.28;4958389;28;20047;-76
2024/01/31 06:09:12;;;;;;;28.90;13.10;;;;;;;5.73;100.00;103221.09;4954684;28;20074;-76
2024/01/31 06:11:37;;;;;;;27.60;12.77;;;;;;;5.71;100.00;103222.91;4958524;28;20039;-74
2024/01/31 06:14:03;;;;;;;25.55;13.35;;;;;;;5.72;100.00;103219.34;4962870;28;20034;-73
2024/01/31 06:16:29;;;;;;;25.65;12.18;;;;;;;5.73;100.00;103215.75;4958343;29;20035;-73
2024/01/31 06:18:54;;;;;;;30.13;13.10;;;;;;;5.74;100.00;103212.16;4959270;29;20110;-74
2024/01/31 06:21:20;;;;;;;29.02;13.80;;;;;;;5.76;100.00;103207.72;4970972;28;20059;-74
2024/01/31 06:23:46;;;;;;;27.42;13.20;;;;;;;5.73;100.00;103199.75;4975230;28;20282;-74
2024/01/31 06:26:12;;;;;;;27.23;13.43;;;;;;;5.73;100.00;103197.97;4961425;28;20042;-73
2024/01/31 06:28:38;;;;;;;30.30;14.63;;;;;;;5.69;100.00;103190.91;4964071;28;20023;-76
2024/01/31 06:31:15;;;;;;;32.80;14.65;;;;;;;5.69;100.00;103192.69;4963700;28;20179;-75
2024/01/31 06:33:41;;;;;;;30.00;13.63;;;;;;;5.69;100.00;103188.22;4957841;28;20091;-73
2024/01/31 06:36:07;;;;;;;33.97;14.57;;;;;;;5.69;100.00;103176.69;4971702;28;20129;-74
2024/01/31 06:38:33;;;;;;;26.23;13.20;;;;;;;5.68;100.00;103185.59;4959643;28;20074;-76
2024/01/31 06:40:58;;;;;;;30.20;15.38;;;;;;;5.68;100.00;103174.91;4955396;28;20038;-74
2024/01/31 06:43:24;;;;;;;30.17;14.80;;;;;;;5.65;100.00;103159.88;4966560;28;20054;-75
2024/01/31 06:45:50;;;;;;;32.50;15.23;;;;;;;5.65;100.00;103157.19;4957844;29;20019;-73
2024/01/31 06:48:15;;;;;;;31.23;15.18;;;;;;;5.64;100.00;103151.84;4958493;28;20593;-76
2024/01/31 06:50:41;;;;;;;28.13;14.15;;;;;;;5.62;100.00;103153.69;4954757;29;20120;-74
2024/01/31 06:53:06;;;;;;;32.15;16.00;;;;;;;5.62;100.00;103157.22;4951538;28;20055;-74
2024/01/31 06:55:31;;;;;;;30.73;14.02;;;;;;;5.58;100.00;103156.41;4950242;29;20027;-73
2024/01/31 06:57:57;;;;;;;28.52;14.68;;;;;;;5.59;100.00;103166.16;4957059;29;20036;-75
2024/01/31 07:00:22;;;;;;;31.05;16.15;;;;;;;5.55;100.00;103151.09;4957437;28;20035;-75
2024/01/31 07:02:47;;;;;;;32.53;16.52;;;;;;;5.56;100.00;103166.22;4955668;29;20050;-73
2024/01/31 07:05:13;;;;;;;31.05;15.73;;;;;;;5.55;100.00;103183.13;4954121;29;20020;-74
2024/01/31 07:07:38;;;;;;;32.42;15.70;;;;;;;5.57;100.00;103191.09;4959814;28;20138;-74
2024/01/31 07:10:04;;;;;;;30.48;16.15;;;;;;;5.58;100.00;103195.53;4964515;28;20023;-73
2024/01/31 07:12:29;;;;;;;29.02;15.43;;;;;;;5.60;100.00;103199.06;4959613;28;20030;-75
2024/01/31 07:14:55;;;;;;;33.97;17.88;;;;;;;5.60;100.00;103215.06;4964088;28;20356;-74
2024/01/31 07:17:20;;;;;;;31.83;17.77;;;;;;;5.62;100.00;103231.03;4962214;29;20047;-75
2024/01/31 07:19:45;;;;;;;35.95;18.02;;;;;;;5.63;100.00;103230.16;4952859;29;20027;-74
2024/01/31 07:22:11;;;;;;;32.45;17.80;;;;;;;5.66;100.00;103240.78;4970233;28;20019;-74
2024/01/31 07:24:37;;;;;;;33.42;17.88;;;;;;;5.65;100.00;103250.56;4962670;28;20023;-74
2024/01/31 07:27:03;;;;;;;37.15;17.52;;;;;;;5.63;100.00;103254.16;4957882;29;20032;-75
2024/01/31 07:29:29;;;;;;;36.72;19.20;;;;;;;5.66;100.00;103260.31;4975566;28;20049;-76
2024/01/31 07:31:55;;;;;;;36.30;16.17;;;;;;;5.68;100.00;103265.63;4957190;29;20099;-74
2024/01/31 07:34:20;;;;;;;28.95;16.48;;;;;;;5.68;100.00;103265.63;4958491;29;20118;-74
2024/01/31 07:36:45;;;;;;;31.80;17.20;;;;;;;5.70;100.00;103259.38;4959095;29;20117;-74
2024/01/31 07:39:11;;;;;;;33.10;16.25;;;;;;;5.68;100.00;103262.97;4960308;28;20031;-73
2024/01/31 07:41:36;;;;;;;31.90;17.27;;;;;;;5.71;100.00;103273.59;4976812;28;20576;-74
2024/01/31 07:44:03;;;;;;;29.83;16.20;;;;;;;5.71;100.00;103271.81;4960248;28;20031;-74
2024/01/31 07:46:29;;;;;;;31.48;15.68;;;;;;;5.73;100.00;103271.81;4955843;29;20163;-74
2024/01/31 07:48:54;;;;;;;33.75;16.65;;;;;;;5.73;100.00;103256.66;4960865;28;20118;-75
2024/01/31 07:51:19;;;;;;;30.55;16.33;;;;;;;5.75;100.00;103261.97;4958045;29;20027;-75
2024/01/31 07:53:44;;;;;;;37.33;17.63;;;;;;;5.76;100.00;103269.09;4956472;28;20034;-74
2024/01/31 07:56:10;;;;;;;34.10;18.92;;;;;;;5.74;100.00;103262.88;4972025;28;20030;-75
2024/01/31 07:58:35;;;;;;;32.75;18.25;;;;;;;5.76;100.00;103258.41;4974435;28;20023;-74
2024/01/31 08:01:01;;;;;;;35.00;18.13;;;;;;;5.77;100.00;103261.06;4963098;28;20421;-76
2024/01/31 08:03:30;;;;;;;31.25;16.90;;;;;;;5.78;100.00;103260.16;4961253;29;20079;-76
2024/01/31 08:05:55;;;;;;;32.83;17.88;;;;;;;5.79;100.00;103258.38;4956597;28;20110;-74
2024/01/31 08:08:20;;;;;;;34.58;20.10;;;;;;;5.77;100.00;103253.06;4967105;28;20474;-73
2024/01/31 08:10:49;;;;;;;37.67;17.92;;;;;;;5.81;100.00;103248.53;4959049;28;20052;-74
2024/01/31 08:13:14;;;;;;;34.33;17.70;;;;;;;5.81;100.00;103240.53;4960033;29;20031;-76
2024/01/31 08:15:40;;;;;;;32.58;18.45;;;;;;;5.82;100.00;103247.66;4958074;29;20055;-74
2024/01/31 08:18:05;;;;;;;34.05;18.95;;;;;;;5.84;100.00;103245.84;4962304;28;20019;-74
2024/01/31 08:20:30;;;;;;;38.45;19.83;;;;;;;5.85;100.00;103247.59;4961089;29;20055;-74
2024/01/31 08:22:56;;;;;;;36.42;19.63;;;;;;;5.84;100.00;103251.19;4962047;28;20035;-74
2024/01/31 08:25:21;;;;;;;33.05;17.23;;;;;;;5.86;100.00;103246.69;4959924;28;20032;-75
2024/01/31 08:27:50;;;;;;;31.45;17.58;;;;;;;5.88;100.00;103247.53;4956650;29;20039;-73
2024/01/31 08:30:18;;;;;;;35.70;18.73;;;;;;;5.89;100.00;103251.97;4957099;29;20059;-75
2024/01/31 08:32:45;;;;;;;36.13;20.17;;;;;;;5.91;100.00;103247.50;4967811;28;20033;-76
2024/01/31 08:35:12;;;;;;;35.08;19.70;;;;;;;5.95;100.00;103243.88;4955836;29;20387;-76
2024/01/31 08:37:37;;;;;;;35.67;19.52;;;;;;;5.95;100.00;103235.88;4955804;29;20561;-75
2024/01/31 08:40:05;;;;;;;35.83;19.38;;;;;;;6.01;100.00;103242.06;4959950;29;20312;-76
2024/01/31 08:42:30;;;;;;;37.20;19.10;;;;;;;6.03;100.00;103232.22;4969026;28;20112;-76
2024/01/31 08:44:55;;;;;;;35.80;19.58;;;;;;;6.05;100.00;103225.97;4955020;28;20119;-76
2024/01/31 08:47:21;;;;;;;34.10;19.48;;;;;;;6.08;100.00;103219.72;4966757;28;20062;-76
2024/01/31 08:49:48;;;;;;;41.78;21.08;;;;;;;6.09;100.00;103226.78;4956638;28;20038;-76
2024/01/31 08:52:13;;;;;;;40.47;20.60;;;;;;;6.11;100.00;103223.19;4953194;28;20054;-76
2024/01/31 08:54:39;;;;;;;35.55;20.05;;;;;;;6.11;100.00;103219.66;4954674;29;20107;-76
2024/01/31 08:57:04;;;;;;;34.95;20.10;;;;;;;6.11;100.00;103217.00;4953771;29;20134;-76
2024/01/31 08:59:29;;;;;;;37.83;20.73;;;;;;;6.10;100.00;103208.06;4953010;29;20035;-76
2024/01/31 09:01:55;;;;;;;36.08;22.92;;;;;;;6.06;100.00;103209.06;4957352;28;20039;-76
2024/01/31 09:04:20;;;;;;;37.47;19.98;;;;;;;6.07;100.00;103209.94;4951294;28;20042;-76
2024/01/31 09:06:45;;;;;;;41.67;22.35;;;;;;;6.08;100.00;103209.03;4965822;28;20043;-76
2024/01/31 09:09:11;;;;;;;42.03;22.80;;;;;;;6.10;100.00;103196.53;4956071;28;20027;-76
2024/01/31 09:11:36;;;;;;;37.90;22.02;;;;;;;6.12;100.00;103197.41;4959181;29;20115;-76
2024/01/31 09:14:02;;;;;;;36.80;19.48;;;;;;;6.16;100.00;103196.41;4955003;29;20046;-76
2024/01/31 09:16:27;;;;;;;38.88;21.88;;;;;;;6.18;100.00;103186.63;4956101;29;20031;-76
2024/01/31 09:18:53;;;;;;;37.72;20.95;;;;;;;6.21;100.00;103178.53;4956399;28;20043;-76
2024/01/31 09:21:23;;;;;;;40.42;22.25;;;;;;;6.25;100.00;103171.34;4968532;28;20039;-76
2024/01/31 09:23:49;;;;;;;36.42;21.02;;;;;;;6.28;100.00;103165.94;4951991;29;20043;-76
2024/01/31 09:26:15;;;;;;;34.10;20.27;;;;;;;6.28;100.00;103171.28;4969450;28;20161;-76
2024/01/31 09:28:41;;;;;;;40.50;23.55;;;;;;;6.30;100.00;103165.00;4966449;28;20058;-76
2024/01/31 09:31:06;;;;;;;39.97;23.27;;;;;;;6.35;100.00;103161.38;4955018;29;20043;-76
2024/01/31 09:33:32;;;;;;;41.92;24.73;;;;;;;6.34;100.00;103160.53;4954413;29;20122;-76
2024/01/31 09:35:57;;;;;;;49.45;23.92;;;;;;;6.31;100.00;103157.91;4955781;28;20126;-76
2024/01/31 09:38:25;;;;;;;47.22;25.67;;;;;;;6.32;100.00;103156.97;4954847;28;20027;-76
2024/01/31 09:40:51;;;;;;;39.65;24.98;;;;;;;6.35;100.00;103158.72;4965321;28;20252;-76
2024/01/31 09:43:17;;;;;;;47.35;25.33;;;;;;;6.39;100.00;103153.28;4941836;28;20086;-76
2024/01/31 09:45:42;;;;;;;40.63;23.42;;;;;;;6.43;100.00;103148.78;4945842;28;20035;-76
2024/01/31 09:48:10;;;;;;;43.88;24.35;;;;;;;6.46;100.00;103146.06;4942456;29;20106;-76
2024/01/31 09:50:35;;;;;;;39.55;24.45;;;;;;;6.52;100.00;103137.03;4941624;29;20479;-76
2024/01/31 09:53:02;;;;;;;42.65;24.02;;;;;;;6.58;100.00;103136.91;4959481;28;20035;-76
2024/01/31 09:55:27;;;;;;;40.65;22.60;;;;;;;6.64;100.00;103134.13;4942748;29;20024;-76
2024/01/31 09:57:52;;;;;;;39.83;22.63;;;;;;;6.70;100.00;103133.13;4943473;28;20094;-76
2024/01/31 10:00:18;;;;;;;41.08;22.75;;;;;;;6.74;100.00;103137.50;4941531;29;20054;-76
2024/01/31 10:02:47;;;;;;;38.97;21.92;;;;;;;6.78;100.00;103137.38;4944185;29;20530;-76
2024/01/31 10:05:13;;;;;;;39.45;21.83;;;;;;;6.82;100.00;103147.13;4956752;28;20374;-77
2024/01/31 10:07:41;;;;;;;39.17;22.90;;;;;;;6.87;100.00;103149.69;4938052;29;20039;-77
2024/01/31 10:10:09;;;;;;;41.95;20.85;;;;;;;6.88;100.00;103151.47;4945142;29;20035;-76
2024/01/31 10:12:36;;;;;;;37.15;19.17;;;;;;;6.94;100.00;103154.00;4961760;28;20513;-77
2024/01/31 10:15:02;;;;;;;33.78;18.45;;;;;;;6.93;100.00;103157.56;4957438;28;20028;-76
2024/01/31 10:17:27;;;;;;;35.90;19.40;;;;;;;6.92;100.00;103157.59;4945952;28;20089;-76
2024/01/31 10:19:53;;;;;;;33.92;19.13;;;;;;;6.90;100.00;103164.78;4943412;29;20031;-76
2024/01/31 10:22:18;;;;;;;34.65;17.80;;;;;;;6.87;100.00;103171.06;4945972;29;20450;-76
2024/01/31 10:24:50;;;;;;;36.45;18.88;;;;;;;6.89;100.00;103165.69;4947288;28;20019;-76
2024/01/31 10:27:19;;;;;;;34.17;17.17;;;;;;;6.88;100.00;103174.63;4954021;28;22097;-76
2024/01/31 10:29:45;;;;;;;32.72;17.75;;;;;;;6.90;100.00;103170.13;4943260;28;20027;-76
2024/01/31 10:32:10;;;;;;;31.00;15.75;;;;;;;6.92;100.00;103177.19;4939865;29;20478;-76
2024/01/31 10:34:38;;;;;;;30.63;16.35;;;;;;;6.96;100.00;103170.88;4947848;29;20126;-76
2024/01/31 10:37:06;;;;;;;31.65;16.70;;;;;;;6.96;100.00;103176.22;4946716;28;20446;-76
2024/01/31 10:39:32;;;;;;;29.38;14.85;;;;;;;6.97;100.00;103174.44;4946897;28;20046;-76
2024/01/31 10:42:00;;;;;;;32.30;16.08;;;;;;;6.97;100.00;103169.97;4946510;28;20499;-77
2024/01/31 10:44:27;;;;;;;29.83;15.77;;;;;;;6.97;100.00;103174.44;4945369;29;20019;-76
2024/01/31 10:46:52;;;;;;;32.25;16.77;;;;;;;7.00;100.00;103175.25;4954381;28;20110;-76
2024/01/31 10:49:18;;;;;;;27.00;13.43;;;;;;;7.02;100.00;103171.66;4947561;28;20122;-76
2024/01/31 10:51:47;;;;;;;28.40;15.13;;;;;;;7.02;100.00;103169.88;4949879;28;20105;-76
2024/01/31 10:54:14;;;;;;;;;;;;;;;7.08;100.00;103172.41;4948766;29;20032;-76
2024/01/31 10:56:40;;;;;;;28.00;13.25;;;;;;;6.98;100.00;103171.75;4949382;28;19938;-76
2024/01/31 10:59:08;;;;;;;23.80;12.57;;;;;;;6.97;100.00;103156.59;4955029;28;20057;-76
2024/01/31 11:01:34;;;;;;;28.05;15.15;;;;;;;6.99;100.00;103164.59;4953574;29;20958;-76
2024/01/31 11:04:02;;;;;;;27.10;13.43;;;;;;;6.97;100.00;103148.59;4950625;29;20468;-77
2024/01/31 11:06:41;;;;;;;29.25;14.60;;;;;;;7.02;100.00;103158.31;4949615;28;20047;-76